sensor_id;sensor_type;location;lat;lon;timestamp;temperature;humidity
26278;DHT22;14000;52.056;8.510;2023-08-01T00:00:14;16.10;99.90
26278;DHT22;14000;52.056;8.510;2023-08-01T00:02:40;16.00;99.90
26278;DHT22;14000;52.056;8.510;2023-08-01T00:05:07;16.10;99.90
26278;DHT22;14000;52.056;8.510;2023-08-01T00:07:33;15.90;99.90
26278;DHT22;14000;52.056;8.510;2023-08-01T00:09:59;16.00;99.90
26278;DHT22;14000;52.056;8.510;2023-08-01T00:12:25;15.90;99.90
26278;DHT22;14000;52.056;8.510;2023-08-01T00:14:51;15.90;99.90
26278;DHT22;14000;52.056;8.510;2023-08-01T00:17:17;15.80;99.90
26278;DHT22;14000;52.056;8.510;2023-08-01T00:19:42;15.70;99.90
26278;DHT22;14000;52.056;8.510;2023-08-01T00:22:08;15.60;99.90
26278;DHT22;14000;52.056;8.510;2023-08-01T00:24:35;15.70;99.90
26278;DHT22;14000;52.056;8.510;2023-08-01T00:27:00;15.60;99.90
26278;DHT22;14000;52.056;8.510;2023-08-01T00:29:26;15.60;99.90
26278;DHT22;14000;52.056;8.510;2023-08-01T00:31:51;15.60;99.90
26278;DHT22;14000;52.056;8.510;2023-08-01T00:34:17;15.50;99.90
26278;DHT22;14000;52.056;8.510;2023-08-01T00:36:42;15.60;99.90
26278;DHT22;14000;52.056;8.510;2023-08-01T00:39:08;15.60;99.90
26278;DHT22;14000;52.056;8.510;2023-08-01T00:41:35;15.50;99.90
26278;DHT22;14000;52.056;8.510;2023-08-01T00:44:00;15.60;99.90
26278;DHT22;14000;52.056;8.510;2023-08-01T00:46:26;15.50;99.90
26278;DHT22;14000;52.056;8.510;2023-08-01T00:48:52;15.50;99.90
26278;DHT22;14000;52.056;8.510;2023-08-01T00:51:18;15.50;99.90
26278;DHT22;14000;52.056;8.510;2023-08-01T00:53:44;15.50;99.90
26278;DHT22;14000;52.056;8.510;2023-08-01T00:56:11;15.50;99.90
26278;DHT22;14000;52.056;8.510;2023-08-01T00:58:37;15.50;99.90
26278;DHT22;14000;52.056;8.510;2023-08-01T01:01:02;15.50;99.90
26278;DHT22;14000;52.056;8.510;2023-08-01T01:03:29;15.50;99.90
26278;DHT22;14000;52.056;8.510;2023-08-01T01:06:19;15.40;99.90
26278;DHT22;14000;52.056;8.510;2023-08-01T01:08:47;15.40;99.90
26278;DHT22;14000;52.056;8.510;2023-08-01T01:11:12;15.40;99.90
26278;DHT22;14000;52.056;8.510;2023-08-01T01:13:38;15.40;99.90
26278;DHT22;14000;52.056;8.510;2023-08-01T01:16:04;15.40;99.90
26278;DHT22;14000;52.056;8.510;2023-08-01T01:18:29;15.40;99.90
26278;DHT22;14000;52.056;8.510;2023-08-01T01:20:55;15.40;99.90
26278;DHT22;14000;52.056;8.510;2023-08-01T01:23:21;15.40;99.90
26278;DHT22;14000;52.056;8.510;2023-08-01T01:25:48;15.40;99.90
26278;DHT22;14000;52.056;8.510;2023-08-01T01:28:15;15.30;99.90
26278;DHT22;14000;52.056;8.510;2023-08-01T01:30:42;15.40;99.90
26278;DHT22;14000;52.056;8.510;2023-08-01T01:33:09;15.40;99.90
26278;DHT22;14000;52.056;8.510;2023-08-01T01:35:35;15.40;99.90
26278;DHT22;14000;52.056;8.510;2023-08-01T01:38:01;15.30;99.90
26278;DHT22;14000;52.056;8.510;2023-08-01T01:40:30;15.30;99.90
26278;DHT22;14000;52.056;8.510;2023-08-01T01:42:56;15.30;99.90
26278;DHT22;14000;52.056;8.510;2023-08-01T01:45:22;15.20;99.90
26278;DHT22;14000;52.056;8.510;2023-08-01T01:47:47;15.30;99.90
26278;DHT22;14000;52.056;8.510;2023-08-01T01:50:13;15.30;99.90
26278;DHT22;14000;52.056;8.510;2023-08-01T01:52:38;15.20;99.90
26278;DHT22;14000;52.056;8.510;2023-08-01T01:55:04;15.20;99.90
26278;DHT22;14000;52.056;8.510;2023-08-01T01:57:30;15.20;99.90
26278;DHT22;14000;52.056;8.510;2023-08-01T01:59:56;15.20;99.90
26278;DHT22;14000;52.056;8.510;2023-08-01T02:02:21;15.20;99.90
26278;DHT22;14000;52.056;8.510;2023-08-01T02:04:49;15.20;99.90
26278;DHT22;14000;52.056;8.510;2023-08-01T02:07:15;15.20;99.90
26278;DHT22;14000;52.056;8.510;2023-08-01T02:09:41;15.30;99.90
26278;DHT22;14000;52.056;8.510;2023-08-01T02:12:07;15.30;99.90
26278;DHT22;14000;52.056;8.510;2023-08-01T02:14:35;15.30;99.90
26278;DHT22;14000;52.056;8.510;2023-08-01T02:17:01;15.30;99.90
26278;DHT22;14000;52.056;8.510;2023-08-01T02:19:26;15.30;99.90
26278;DHT22;14000;52.056;8.510;2023-08-01T02:21:53;15.30;99.90
26278;DHT22;14000;52.056;8.510;2023-08-01T02:24:18;15.30;99.90
26278;DHT22;14000;52.056;8.510;2023-08-01T02:26:44;15.30;99.90
26278;DHT22;14000;52.056;8.510;2023-08-01T02:29:09;15.30;99.90
26278;DHT22;14000;52.056;8.510;2023-08-01T02:31:35;15.30;99.90
26278;DHT22;14000;52.056;8.510;2023-08-01T02:34:01;15.30;99.90
26278;DHT22;14000;52.056;8.510;2023-08-01T02:36:26;15.30;99.90
26278;DHT22;14000;52.056;8.510;2023-08-01T02:38:52;15.30;99.90
26278;DHT22;14000;52.056;8.510;2023-08-01T02:41:17;15.30;99.90
26278;DHT22;14000;52.056;8.510;2023-08-01T02:43:43;15.30;99.90
26278;DHT22;14000;52.056;8.510;2023-08-01T02:46:08;15.30;99.90
26278;DHT22;14000;52.056;8.510;2023-08-01T02:48:34;15.40;99.90
26278;DHT22;14000;52.056;8.510;2023-08-01T02:51:01;15.30;99.90
26278;DHT22;14000;52.056;8.510;2023-08-01T02:53:27;15.30;99.90
26278;DHT22;14000;52.056;8.510;2023-08-01T02:55:52;15.40;99.90
26278;DHT22;14000;52.056;8.510;2023-08-01T02:58:18;15.30;99.90
26278;DHT22;14000;52.056;8.510;2023-08-01T03:00:43;15.30;99.90
26278;DHT22;14000;52.056;8.510;2023-08-01T03:03:09;15.40;99.90
26278;DHT22;14000;52.056;8.510;2023-08-01T03:05:36;15.30;99.90
26278;DHT22;14000;52.056;8.510;2023-08-01T03:08:03;15.30;99.90
26278;DHT22;14000;52.056;8.510;2023-08-01T03:10:28;15.40;99.90
26278;DHT22;14000;52.056;8.510;2023-08-01T03:12:54;15.30;99.90
26278;DHT22;14000;52.056;8.510;2023-08-01T03:15:20;15.30;99.90
26278;DHT22;14000;52.056;8.510;2023-08-01T03:17:45;15.30;99.90
26278;DHT22;14000;52.056;8.510;2023-08-01T03:20:11;15.40;99.90
26278;DHT22;14000;52.056;8.510;2023-08-01T03:22:40;15.30;99.90
26278;DHT22;14000;52.056;8.510;2023-08-01T03:25:06;15.40;99.90
26278;DHT22;14000;52.056;8.510;2023-08-01T03:27:35;15.30;99.90
26278;DHT22;14000;52.056;8.510;2023-08-01T03:30:02;15.30;99.90
26278;DHT22;14000;52.056;8.510;2023-08-01T03:32:28;15.40;99.90
26278;DHT22;14000;52.056;8.510;2023-08-01T03:34:53;15.40;99.90
26278;DHT22;14000;52.056;8.510;2023-08-01T03:37:19;15.40;99.90
26278;DHT22;14000;52.056;8.510;2023-08-01T03:39:44;15.40;99.90
26278;DHT22;14000;52.056;8.510;2023-08-01T03:42:10;15.50;99.90
26278;DHT22;14000;52.056;8.510;2023-08-01T03:44:36;15.40;99.90
26278;DHT22;14000;52.056;8.510;2023-08-01T03:47:02;15.40;99.90
26278;DHT22;14000;52.056;8.510;2023-08-01T03:49:27;15.40;99.90
26278;DHT22;14000;52.056;8.510;2023-08-01T03:51:53;15.40;99.90
26278;DHT22;14000;52.056;8.510;2023-08-01T03:54:18;15.40;99.90
26278;DHT22;14000;52.056;8.510;2023-08-01T03:56:44;15.40;99.90
26278;DHT22;14000;52.056;8.510;2023-08-01T03:59:12;15.40;99.90
26278;DHT22;14000;52.056;8.510;2023-08-01T04:01:38;15.40;99.90
26278;DHT22;14000;52.056;8.510;2023-08-01T04:04:04;15.40;99.90
26278;DHT22;14000;52.056;8.510;2023-08-01T04:06:29;15.50;99.90
26278;DHT22;14000;52.056;8.510;2023-08-01T04:08:55;15.50;99.90
26278;DHT22;14000;52.056;8.510;2023-08-01T04:11:22;15.40;99.90
26278;DHT22;14000;52.056;8.510;2023-08-01T04:13:48;15.40;99.90
26278;DHT22;14000;52.056;8.510;2023-08-01T04:16:13;15.40;99.90
26278;DHT22;14000;52.056;8.510;2023-08-01T04:18:39;15.50;99.90
26278;DHT22;14000;52.056;8.510;2023-08-01T04:21:05;15.50;99.90
26278;DHT22;14000;52.056;8.510;2023-08-01T04:23:31;15.50;99.90
26278;DHT22;14000;52.056;8.510;2023-08-01T04:25:57;15.50;99.90
26278;DHT22;14000;52.056;8.510;2023-08-01T04:28:24;15.50;99.90
26278;DHT22;14000;52.056;8.510;2023-08-01T04:30:51;15.50;99.90
26278;DHT22;14000;52.056;8.510;2023-08-01T04:33:17;15.50;99.90
26278;DHT22;14000;52.056;8.510;2023-08-01T04:35:43;15.50;99.90
26278;DHT22;14000;52.056;8.510;2023-08-01T04:38:09;15.60;99.90
26278;DHT22;14000;52.056;8.510;2023-08-01T04:40:36;15.50;99.90
26278;DHT22;14000;52.056;8.510;2023-08-01T04:43:02;15.40;99.90
26278;DHT22;14000;52.056;8.510;2023-08-01T04:45:27;15.40;99.90
26278;DHT22;14000;52.056;8.510;2023-08-01T04:47:53;15.40;99.90
26278;DHT22;14000;52.056;8.510;2023-08-01T04:50:19;15.40;99.90
26278;DHT22;14000;52.056;8.510;2023-08-01T04:52:44;15.40;99.90
26278;DHT22;14000;52.056;8.510;2023-08-01T04:55:10;15.40;99.90
26278;DHT22;14000;52.056;8.510;2023-08-01T04:57:35;15.40;99.90
26278;DHT22;14000;52.056;8.510;2023-08-01T05:00:02;15.40;99.90
26278;DHT22;14000;52.056;8.510;2023-08-01T05:02:28;15.40;99.90
26278;DHT22;14000;52.056;8.510;2023-08-01T05:04:54;15.40;99.90
26278;DHT22;14000;52.056;8.510;2023-08-01T05:07:19;15.40;99.90
26278;DHT22;14000;52.056;8.510;2023-08-01T05:09:45;15.40;99.90
26278;DHT22;14000;52.056;8.510;2023-08-01T05:12:11;15.40;99.90
26278;DHT22;14000;52.056;8.510;2023-08-01T05:14:36;15.40;99.90
26278;DHT22;14000;52.056;8.510;2023-08-01T05:17:02;15.50;99.90
26278;DHT22;14000;52.056;8.510;2023-08-01T05:19:27;15.40;99.90
26278;DHT22;14000;52.056;8.510;2023-08-01T05:21:53;15.50;99.90
26278;DHT22;14000;52.056;8.510;2023-08-01T05:24:18;15.40;99.90
26278;DHT22;14000;52.056;8.510;2023-08-01T05:26:44;15.50;99.90
26278;DHT22;14000;52.056;8.510;2023-08-01T05:29:10;15.40;99.90
26278;DHT22;14000;52.056;8.510;2023-08-01T05:31:35;15.40;99.90
26278;DHT22;14000;52.056;8.510;2023-08-01T05:34:01;15.50;99.90
26278;DHT22;14000;52.056;8.510;2023-08-01T05:36:26;15.50;99.90
26278;DHT22;14000;52.056;8.510;2023-08-01T05:38:52;15.50;99.90
26278;DHT22;14000;52.056;8.510;2023-08-01T05:41:17;15.50;99.90
26278;DHT22;14000;52.056;8.510;2023-08-01T05:43:44;15.50;99.90
26278;DHT22;14000;52.056;8.510;2023-08-01T05:46:10;15.50;99.90
26278;DHT22;14000;52.056;8.510;2023-08-01T05:48:35;15.50;99.90
26278;DHT22;14000;52.056;8.510;2023-08-01T05:51:01;15.50;99.90
26278;DHT22;14000;52.056;8.510;2023-08-01T05:53:27;15.50;99.90
26278;DHT22;14000;52.056;8.510;2023-08-01T05:55:54;15.50;99.90
26278;DHT22;14000;52.056;8.510;2023-08-01T05:58:19;15.40;99.90
26278;DHT22;14000;52.056;8.510;2023-08-01T06:00:45;15.40;99.90
26278;DHT22;14000;52.056;8.510;2023-08-01T06:03:10;15.40;99.90
26278;DHT22;14000;52.056;8.510;2023-08-01T06:05:36;15.40;99.90
26278;DHT22;14000;52.056;8.510;2023-08-01T06:08:03;15.30;99.90
26278;DHT22;14000;52.056;8.510;2023-08-01T06:10:29;15.30;99.90
26278;DHT22;14000;52.056;8.510;2023-08-01T06:12:54;15.40;99.90
26278;DHT22;14000;52.056;8.510;2023-08-01T06:15:20;15.40;99.90
26278;DHT22;14000;52.056;8.510;2023-08-01T06:17:47;15.40;99.90
26278;DHT22;14000;52.056;8.510;2023-08-01T06:20:12;15.40;99.90
26278;DHT22;14000;52.056;8.510;2023-08-01T06:22:38;15.40;99.90
26278;DHT22;14000;52.056;8.510;2023-08-01T06:25:04;15.50;99.90
26278;DHT22;14000;52.056;8.510;2023-08-01T06:27:30;15.50;99.90
26278;DHT22;14000;52.056;8.510;2023-08-01T06:29:55;15.50;99.90
26278;DHT22;14000;52.056;8.510;2023-08-01T06:32:21;15.50;99.90
26278;DHT22;14000;52.056;8.510;2023-08-01T06:34:47;15.50;99.90
26278;DHT22;14000;52.056;8.510;2023-08-01T06:37:12;15.50;99.90
26278;DHT22;14000;52.056;8.510;2023-08-01T06:39:38;15.50;99.90
26278;DHT22;14000;52.056;8.510;2023-08-01T06:42:03;15.50;99.90
26278;DHT22;14000;52.056;8.510;2023-08-01T06:44:29;15.50;99.90
26278;DHT22;14000;52.056;8.510;2023-08-01T06:46:55;15.50;99.90
26278;DHT22;14000;52.056;8.510;2023-08-01T06:49:20;15.60;99.90
26278;DHT22;14000;52.056;8.510;2023-08-01T06:51:46;15.60;99.90
26278;DHT22;14000;52.056;8.510;2023-08-01T06:54:11;15.60;99.90
26278;DHT22;14000;52.056;8.510;2023-08-01T06:56:37;15.60;99.90
26278;DHT22;14000;52.056;8.510;2023-08-01T06:59:02;15.70;99.90
26278;DHT22;14000;52.056;8.510;2023-08-01T07:01:28;15.80;99.90
26278;DHT22;14000;52.056;8.510;2023-08-01T07:03:54;15.70;99.90
26278;DHT22;14000;52.056;8.510;2023-08-01T07:06:20;15.70;99.90
26278;DHT22;14000;52.056;8.510;2023-08-01T07:08:45;15.80;99.90
26278;DHT22;14000;52.056;8.510;2023-08-01T07:11:11;15.80;99.90
26278;DHT22;14000;52.056;8.510;2023-08-01T07:13:36;15.70;99.90
26278;DHT22;14000;52.056;8.510;2023-08-01T07:16:02;15.70;99.90
26278;DHT22;14000;52.056;8.510;2023-08-01T07:18:28;15.70;99.90
26278;DHT22;14000;52.056;8.510;2023-08-01T07:21:03;15.70;99.90
26278;DHT22;14000;52.056;8.510;2023-08-01T07:23:30;15.70;99.90
26278;DHT22;14000;52.056;8.510;2023-08-01T07:25:55;15.70;99.90
26278;DHT22;14000;52.056;8.510;2023-08-01T07:28:21;15.80;99.90
26278;DHT22;14000;52.056;8.510;2023-08-01T07:30:47;15.70;99.90
26278;DHT22;14000;52.056;8.510;2023-08-01T07:33:12;15.70;99.90
26278;DHT22;14000;52.056;8.510;2023-08-01T07:35:38;15.80;99.90
26278;DHT22;14000;52.056;8.510;2023-08-01T07:38:03;15.80;99.90
26278;DHT22;14000;52.056;8.510;2023-08-01T07:40:29;15.80;99.90
26278;DHT22;14000;52.056;8.510;2023-08-01T07:42:54;15.80;99.90
26278;DHT22;14000;52.056;8.510;2023-08-01T07:45:20;15.90;99.90
26278;DHT22;14000;52.056;8.510;2023-08-01T07:47:46;15.90;99.90
26278;DHT22;14000;52.056;8.510;2023-08-01T07:50:11;15.90;99.90
26278;DHT22;14000;52.056;8.510;2023-08-01T07:52:37;16.10;99.90
26278;DHT22;14000;52.056;8.510;2023-08-01T07:55:02;16.30;99.90
26278;DHT22;14000;52.056;8.510;2023-08-01T07:57:28;16.40;99.90
26278;DHT22;14000;52.056;8.510;2023-08-01T07:59:54;16.50;99.90
26278;DHT22;14000;52.056;8.510;2023-08-01T08:02:20;16.50;99.90
26278;DHT22;14000;52.056;8.510;2023-08-01T08:04:45;16.50;99.90
26278;DHT22;14000;52.056;8.510;2023-08-01T08:07:11;16.50;99.90
26278;DHT22;14000;52.056;8.510;2023-08-01T08:09:37;16.60;99.90
26278;DHT22;14000;52.056;8.510;2023-08-01T08:12:02;16.70;99.90
26278;DHT22;14000;52.056;8.510;2023-08-01T08:14:28;16.70;99.90
26278;DHT22;14000;52.056;8.510;2023-08-01T08:16:55;16.80;99.90
26278;DHT22;14000;52.056;8.510;2023-08-01T08:19:20;16.70;99.90
26278;DHT22;14000;52.056;8.510;2023-08-01T08:21:46;16.70;99.90
26278;DHT22;14000;52.056;8.510;2023-08-01T08:24:12;16.50;99.90
26278;DHT22;14000;52.056;8.510;2023-08-01T08:26:37;16.30;99.90
26278;DHT22;14000;52.056;8.510;2023-08-01T08:29:05;16.20;99.90
26278;DHT22;14000;52.056;8.510;2023-08-01T08:31:31;16.10;99.90
26278;DHT22;14000;52.056;8.510;2023-08-01T08:33:56;16.00;99.90
26278;DHT22;14000;52.056;8.510;2023-08-01T08:36:22;15.90;99.90
26278;DHT22;14000;52.056;8.510;2023-08-01T08:38:47;15.80;99.90
26278;DHT22;14000;52.056;8.510;2023-08-01T08:41:20;15.70;99.90
26278;DHT22;14000;52.056;8.510;2023-08-01T08:43:48;15.60;99.90
26278;DHT22;14000;52.056;8.510;2023-08-01T08:46:16;15.60;99.90
26278;DHT22;14000;52.056;8.510;2023-08-01T08:48:42;15.60;99.90
26278;DHT22;14000;52.056;8.510;2023-08-01T08:51:09;15.70;99.90
26278;DHT22;14000;52.056;8.510;2023-08-01T08:53:36;15.60;99.90
26278;DHT22;14000;52.056;8.510;2023-08-01T08:56:02;15.70;99.90
26278;DHT22;14000;52.056;8.510;2023-08-01T08:58:29;15.90;99.90
26278;DHT22;14000;52.056;8.510;2023-08-01T09:00:57;15.90;99.90
26278;DHT22;14000;52.056;8.510;2023-08-01T09:03:23;16.00;99.90
26278;DHT22;14000;52.056;8.510;2023-08-01T09:05:50;16.10;99.90
26278;DHT22;14000;52.056;8.510;2023-08-01T09:08:19;16.00;99.90
26278;DHT22;14000;52.056;8.510;2023-08-01T09:10:45;16.10;99.90
26278;DHT22;14000;52.056;8.510;2023-08-01T09:13:11;16.00;99.90
26278;DHT22;14000;52.056;8.510;2023-08-01T09:15:37;16.00;99.90
26278;DHT22;14000;52.056;8.510;2023-08-01T09:18:07;16.10;99.90
26278;DHT22;14000;52.056;8.510;2023-08-01T09:20:48;16.00;99.90
26278;DHT22;14000;52.056;8.510;2023-08-01T09:23:15;16.00;99.90
26278;DHT22;14000;52.056;8.510;2023-08-01T09:25:42;16.10;99.90
26278;DHT22;14000;52.056;8.510;2023-08-01T09:28:24;16.20;99.90
26278;DHT22;14000;52.056;8.510;2023-08-01T09:30:55;16.30;99.90
26278;DHT22;14000;52.056;8.510;2023-08-01T09:33:21;16.60;99.90
26278;DHT22;14000;52.056;8.510;2023-08-01T09:35:49;16.70;99.90
26278;DHT22;14000;52.056;8.510;2023-08-01T09:38:16;16.90;99.90
26278;DHT22;14000;52.056;8.510;2023-08-01T09:40:43;17.10;99.90
26278;DHT22;14000;52.056;8.510;2023-08-01T09:43:10;17.20;99.90
26278;DHT22;14000;52.056;8.510;2023-08-01T09:45:36;17.20;99.90
26278;DHT22;14000;52.056;8.510;2023-08-01T09:48:02;17.10;99.90
26278;DHT22;14000;52.056;8.510;2023-08-01T09:50:27;16.90;99.90
26278;DHT22;14000;52.056;8.510;2023-08-01T09:52:53;16.70;99.90
26278;DHT22;14000;52.056;8.510;2023-08-01T09:55:30;16.40;99.90
26278;DHT22;14000;52.056;8.510;2023-08-01T09:57:57;16.10;99.90
26278;DHT22;14000;52.056;8.510;2023-08-01T10:00:26;16.20;99.90
26278;DHT22;14000;52.056;8.510;2023-08-01T10:02:52;16.20;99.90
26278;DHT22;14000;52.056;8.510;2023-08-01T10:05:19;16.40;99.90
26278;DHT22;14000;52.056;8.510;2023-08-01T10:07:47;16.50;99.90
26278;DHT22;14000;52.056;8.510;2023-08-01T10:10:14;16.70;99.90
26278;DHT22;14000;52.056;8.510;2023-08-01T10:12:45;16.80;99.90
26278;DHT22;14000;52.056;8.510;2023-08-01T10:15:13;16.90;99.90
26278;DHT22;14000;52.056;8.510;2023-08-01T10:17:41;16.80;99.90
26278;DHT22;14000;52.056;8.510;2023-08-01T10:20:07;16.90;99.90
26278;DHT22;14000;52.056;8.510;2023-08-01T10:22:33;17.00;99.90
26278;DHT22;14000;52.056;8.510;2023-08-01T10:24:59;16.90;99.90
26278;DHT22;14000;52.056;8.510;2023-08-01T10:27:26;16.70;99.90
26278;DHT22;14000;52.056;8.510;2023-08-01T10:30:03;16.60;99.90
26278;DHT22;14000;52.056;8.510;2023-08-01T10:32:32;16.40;99.90
26278;DHT22;14000;52.056;8.510;2023-08-01T10:34:58;16.20;99.90
26278;DHT22;14000;52.056;8.510;2023-08-01T10:37:24;16.00;99.90
26278;DHT22;14000;52.056;8.510;2023-08-01T10:40:00;15.90;99.90
26278;DHT22;14000;52.056;8.510;2023-08-01T10:42:36;15.80;99.90
26278;DHT22;14000;52.056;8.510;2023-08-01T10:45:02;15.80;99.90
26278;DHT22;14000;52.056;8.510;2023-08-01T10:47:28;15.90;99.90
26278;DHT22;14000;52.056;8.510;2023-08-01T10:49:53;16.00;99.90
26278;DHT22;14000;52.056;8.510;2023-08-01T10:52:22;16.10;99.90
26278;DHT22;14000;52.056;8.510;2023-08-01T10:55:00;16.30;99.90
26278;DHT22;14000;52.056;8.510;2023-08-01T10:57:36;16.50;99.90
26278;DHT22;14000;52.056;8.510;2023-08-01T11:00:03;16.90;99.90
26278;DHT22;14000;52.056;8.510;2023-08-01T11:02:34;17.10;99.90
26278;DHT22;14000;52.056;8.510;2023-08-01T11:05:07;17.20;99.90
26278;DHT22;14000;52.056;8.510;2023-08-01T11:07:34;17.20;99.90
26278;DHT22;14000;52.056;8.510;2023-08-01T11:10:13;17.30;99.90
26278;DHT22;14000;52.056;8.510;2023-08-01T11:12:41;17.30;99.90
26278;DHT22;14000;52.056;8.510;2023-08-01T11:15:09;17.50;99.90
26278;DHT22;14000;52.056;8.510;2023-08-01T11:17:39;17.70;99.90
26278;DHT22;14000;52.056;8.510;2023-08-01T11:20:07;17.50;99.90
26278;DHT22;14000;52.056;8.510;2023-08-01T11:22:34;17.40;99.90
26278;DHT22;14000;52.056;8.510;2023-08-01T11:25:00;17.00;99.90
26278;DHT22;14000;52.056;8.510;2023-08-01T11:27:26;16.60;99.90
26278;DHT22;14000;52.056;8.510;2023-08-01T11:29:52;16.30;99.90
26278;DHT22;14000;52.056;8.510;2023-08-01T11:32:19;16.20;99.90
26278;DHT22;14000;52.056;8.510;2023-08-01T11:34:46;16.20;99.90
26278;DHT22;14000;52.056;8.510;2023-08-01T11:37:13;16.20;99.90
26278;DHT22;14000;52.056;8.510;2023-08-01T11:39:39;16.20;99.90
26278;DHT22;14000;52.056;8.510;2023-08-01T11:42:06;16.20;99.90
26278;DHT22;14000;52.056;8.510;2023-08-01T11:44:31;16.30;99.90
26278;DHT22;14000;52.056;8.510;2023-08-01T11:46:57;17.00;99.90
26278;DHT22;14000;52.056;8.510;2023-08-01T11:49:23;18.00;99.90
26278;DHT22;14000;52.056;8.510;2023-08-01T11:51:48;18.80;99.90
26278;DHT22;14000;52.056;8.510;2023-08-01T11:54:15;19.30;99.90
26278;DHT22;14000;52.056;8.510;2023-08-01T11:56:41;19.80;99.90
26278;DHT22;14000;52.056;8.510;2023-08-01T11:59:09;20.10;99.90
26278;DHT22;14000;52.056;8.510;2023-08-01T12:01:47;20.00;99.90
26278;DHT22;14000;52.056;8.510;2023-08-01T12:04:27;19.90;99.90
26278;DHT22;14000;52.056;8.510;2023-08-01T12:06:53;19.70;99.90
26278;DHT22;14000;52.056;8.510;2023-08-01T12:09:19;19.90;99.90
26278;DHT22;14000;52.056;8.510;2023-08-01T12:11:45;19.70;99.90
26278;DHT22;14000;52.056;8.510;2023-08-01T12:14:13;19.80;99.90
26278;DHT22;14000;52.056;8.510;2023-08-01T12:16:40;20.00;99.90
26278;DHT22;14000;52.056;8.510;2023-08-01T12:19:08;20.10;99.90
26278;DHT22;14000;52.056;8.510;2023-08-01T12:21:34;19.60;99.90
26278;DHT22;14000;52.056;8.510;2023-08-01T12:24:00;19.30;99.90
26278;DHT22;14000;52.056;8.510;2023-08-01T12:26:26;19.10;99.90
26278;DHT22;14000;52.056;8.510;2023-08-01T12:28:52;19.00;99.90
26278;DHT22;14000;52.056;8.510;2023-08-01T12:31:19;18.90;99.90
26278;DHT22;14000;52.056;8.510;2023-08-01T12:33:45;19.10;99.90
26278;DHT22;14000;52.056;8.510;2023-08-01T12:36:12;18.90;99.90
26278;DHT22;14000;52.056;8.510;2023-08-01T12:38:38;19.00;99.90
26278;DHT22;14000;52.056;8.510;2023-08-01T12:41:03;18.70;99.90
26278;DHT22;14000;52.056;8.510;2023-08-01T12:43:29;18.70;99.90
26278;DHT22;14000;52.056;8.510;2023-08-01T12:45:55;18.50;99.90
26278;DHT22;14000;52.056;8.510;2023-08-01T12:48:24;18.50;99.90
26278;DHT22;14000;52.056;8.510;2023-08-01T12:50:50;18.50;99.90
26278;DHT22;14000;52.056;8.510;2023-08-01T12:53:16;18.30;99.90
26278;DHT22;14000;52.056;8.510;2023-08-01T12:55:46;17.70;99.90
26278;DHT22;14000;52.056;8.510;2023-08-01T12:58:12;16.90;99.90
26278;DHT22;14000;52.056;8.510;2023-08-01T13:00:39;16.30;99.90
26278;DHT22;14000;52.056;8.510;2023-08-01T13:03:05;15.90;99.90
26278;DHT22;14000;52.056;8.510;2023-08-01T13:05:34;15.80;99.90
26278;DHT22;14000;52.056;8.510;2023-08-01T13:07:59;15.70;99.90
26278;DHT22;14000;52.056;8.510;2023-08-01T13:10:25;15.70;99.90
26278;DHT22;14000;52.056;8.510;2023-08-01T13:12:51;15.80;99.90
26278;DHT22;14000;52.056;8.510;2023-08-01T13:15:16;15.70;99.90
26278;DHT22;14000;52.056;8.510;2023-08-01T13:17:42;15.70;99.90
26278;DHT22;14000;52.056;8.510;2023-08-01T13:20:08;15.70;99.90
26278;DHT22;14000;52.056;8.510;2023-08-01T13:22:33;15.90;99.90
26278;DHT22;14000;52.056;8.510;2023-08-01T13:24:59;16.10;99.90
26278;DHT22;14000;52.056;8.510;2023-08-01T13:27:24;16.50;99.90
26278;DHT22;14000;52.056;8.510;2023-08-01T13:29:50;16.70;99.90
26278;DHT22;14000;52.056;8.510;2023-08-01T13:32:18;17.00;99.90
26278;DHT22;14000;52.056;8.510;2023-08-01T13:34:43;17.00;99.90
26278;DHT22;14000;52.056;8.510;2023-08-01T13:37:09;17.20;99.90
26278;DHT22;14000;52.056;8.510;2023-08-01T13:39:35;17.20;99.90
26278;DHT22;14000;52.056;8.510;2023-08-01T13:42:00;17.50;99.90
26278;DHT22;14000;52.056;8.510;2023-08-01T13:44:26;17.70;99.90
26278;DHT22;14000;52.056;8.510;2023-08-01T13:46:51;17.90;99.90
26278;DHT22;14000;52.056;8.510;2023-08-01T13:49:18;18.10;99.90
26278;DHT22;14000;52.056;8.510;2023-08-01T13:51:43;18.10;99.90
26278;DHT22;14000;52.056;8.510;2023-08-01T13:54:09;18.30;99.90
26278;DHT22;14000;52.056;8.510;2023-08-01T13:56:35;18.40;99.90
26278;DHT22;14000;52.056;8.510;2023-08-01T13:59:00;18.50;99.90
26278;DHT22;14000;52.056;8.510;2023-08-01T14:01:26;18.50;99.90
26278;DHT22;14000;52.056;8.510;2023-08-01T14:03:51;18.20;99.90
26278;DHT22;14000;52.056;8.510;2023-08-01T14:06:17;18.00;99.90
26278;DHT22;14000;52.056;8.510;2023-08-01T14:08:43;17.90;99.90
26278;DHT22;14000;52.056;8.510;2023-08-01T14:11:09;17.80;99.90
26278;DHT22;14000;52.056;8.510;2023-08-01T14:13:36;17.80;99.90
26278;DHT22;14000;52.056;8.510;2023-08-01T14:16:02;17.70;99.90
26278;DHT22;14000;52.056;8.510;2023-08-01T14:18:28;17.70;99.90
26278;DHT22;14000;52.056;8.510;2023-08-01T14:20:54;18.00;99.90
26278;DHT22;14000;52.056;8.510;2023-08-01T14:23:20;18.20;99.90
26278;DHT22;14000;52.056;8.510;2023-08-01T14:25:46;18.20;99.90
26278;DHT22;14000;52.056;8.510;2023-08-01T14:28:11;18.20;99.90
26278;DHT22;14000;52.056;8.510;2023-08-01T14:30:38;18.20;99.90
26278;DHT22;14000;52.056;8.510;2023-08-01T14:33:06;18.10;99.90
26278;DHT22;14000;52.056;8.510;2023-08-01T14:35:32;18.00;99.90
26278;DHT22;14000;52.056;8.510;2023-08-01T14:37:58;18.20;99.90
26278;DHT22;14000;52.056;8.510;2023-08-01T14:40:24;18.40;99.90
26278;DHT22;14000;52.056;8.510;2023-08-01T14:42:51;18.60;99.90
26278;DHT22;14000;52.056;8.510;2023-08-01T14:45:16;18.90;99.90
26278;DHT22;14000;52.056;8.510;2023-08-01T14:47:43;19.00;99.90
26278;DHT22;14000;52.056;8.510;2023-08-01T14:50:12;19.30;99.90
26278;DHT22;14000;52.056;8.510;2023-08-01T14:52:39;19.40;99.90
26278;DHT22;14000;52.056;8.510;2023-08-01T14:55:05;19.30;99.90
26278;DHT22;14000;52.056;8.510;2023-08-01T14:57:31;19.30;99.90
26278;DHT22;14000;52.056;8.510;2023-08-01T14:59:56;19.30;99.90
26278;DHT22;14000;52.056;8.510;2023-08-01T15:02:22;19.20;99.90
26278;DHT22;14000;52.056;8.510;2023-08-01T15:04:52;19.10;99.90
26278;DHT22;14000;52.056;8.510;2023-08-01T15:07:17;18.80;99.90
26278;DHT22;14000;52.056;8.510;2023-08-01T15:09:44;18.50;99.90
26278;DHT22;14000;52.056;8.510;2023-08-01T15:12:10;18.30;99.90
26278;DHT22;14000;52.056;8.510;2023-08-01T15:14:36;18.20;99.90
26278;DHT22;14000;52.056;8.510;2023-08-01T15:17:03;18.20;99.90
26278;DHT22;14000;52.056;8.510;2023-08-01T15:19:28;18.10;99.90
26278;DHT22;14000;52.056;8.510;2023-08-01T15:21:54;18.10;99.90
26278;DHT22;14000;52.056;8.510;2023-08-01T15:24:20;18.10;99.90